createdAt,value
2022-11-18T00:01:07.583Z,98408.98
2022-11-18T00:03:34.421Z,98409.92
2022-11-18T00:06:01.081Z,98410.20
2022-11-18T00:08:27.896Z,98417.83
2022-11-18T00:10:54.503Z,98417.50
2022-11-18T00:13:39.797Z,98422.18
2022-11-18T00:16:08.344Z,98420.41
2022-11-18T00:18:35.208Z,98420.09
2022-11-18T00:21:02.414Z,98418.70
2022-11-18T00:23:29.536Z,98417.63
2022-11-18T00:25:56.462Z,98421.48
2022-11-18T00:28:23.388Z,98420.70
2022-11-18T00:30:50.146Z,98416.64
2022-11-18T00:33:16.846Z,98413.02
2022-11-18T00:35:43.524Z,98412.04
2022-11-18T00:38:10.257Z,98411.55
2022-11-18T00:40:36.937Z,98407.33
2022-11-18T00:43:03.649Z,98408.11
2022-11-18T00:45:30.426Z,98406.60
2022-11-18T00:47:57.162Z,98405.88
2022-11-18T00:50:24.788Z,98406.27
2022-11-18T00:52:51.492Z,98403.73
2022-11-18T00:55:18.274Z,98400.95
2022-11-18T00:57:45.025Z,98404.73
2022-11-18T01:00:12.045Z,98402.21
2022-11-18T01:02:38.820Z,98406.63
2022-11-18T01:05:12.830Z,98410.09
2022-11-18T01:07:39.679Z,98409.64
2022-11-18T01:10:06.467Z,98413.12
2022-11-18T01:12:54.454Z,98413.80
2022-11-18T01:15:21.412Z,98412.91
2022-11-18T01:17:48.126Z,98416.20
2022-11-18T01:20:15.842Z,98414.46
2022-11-18T01:22:42.571Z,98410.63
2022-11-18T01:25:09.476Z,98412.92
2022-11-18T01:27:36.159Z,98412.83
2022-11-18T01:30:03.070Z,98411.88
2022-11-18T01:32:29.722Z,98416.65
2022-11-18T01:34:56.434Z,98417.55
2022-11-18T01:37:23.228Z,98416.61
2022-11-18T01:39:49.992Z,98418.38
2022-11-18T01:42:16.985Z,98421.89
2022-11-18T01:45:05.295Z,98422.72
2022-11-18T01:47:35.829Z,98418.21
2022-11-18T01:50:02.640Z,98422.14
2022-11-18T01:52:29.325Z,98426.20
2022-11-18T01:54:58.289Z,98427.50
2022-11-18T01:57:27.623Z,98429.02
2022-11-18T01:59:55.304Z,98435.30
2022-11-18T02:02:22.855Z,98436.87
2022-11-18T02:05:54.499Z,98437.78
2022-11-18T02:08:21.248Z,98439.86
2022-11-18T02:10:48.190Z,98443.69
2022-11-18T02:13:14.965Z,98442.08
2022-11-18T02:15:44.702Z,98446.34
2022-11-18T02:18:23.864Z,98447.36
2022-11-18T02:20:51.458Z,98451.98
2022-11-18T02:23:42.645Z,98449.08
2022-11-18T02:26:21.713Z,98449.61
2022-11-18T02:28:57.659Z,98449.45
2022-11-18T02:31:27.999Z,98451.83
2022-11-18T02:33:58.987Z,98447.48
2022-11-18T02:36:40.003Z,98446.08
2022-11-18T02:39:13.655Z,98446.77
2022-11-18T02:41:40.920Z,98445.84
2022-11-18T02:44:11.046Z,98443.60
2022-11-18T02:46:38.795Z,98456.83
2022-11-18T02:49:10.861Z,98458.52
2022-11-18T02:51:37.629Z,98461.45
2022-11-18T02:54:06.734Z,98462.61
2022-11-18T02:56:34.250Z,98465.88
2022-11-18T02:59:01.141Z,98465.73
2022-11-18T03:01:29.026Z,98462.23
2022-11-18T03:03:56.190Z,98467.33
2022-11-18T03:06:33.045Z,98460.92
2022-11-18T03:09:09.117Z,98463.44
2022-11-18T03:12:14.586Z,98458.85
2022-11-18T03:14:47.324Z,98455.79
2022-11-18T03:17:20.483Z,98454.63
2022-11-18T03:19:56.086Z,98458.15
2022-11-18T03:22:52.275Z,98455.85
2022-11-18T03:25:19.049Z,98456.91
2022-11-18T03:27:57.044Z,98457.61
2022-11-18T03:30:23.861Z,98453.57
2022-11-18T03:32:56.440Z,98457.23
2022-11-18T03:35:24.136Z,98464.06
2022-11-18T03:37:52.231Z,98464.84
2022-11-18T03:40:20.046Z,98471.63
2022-11-18T03:42:48.221Z,98470.09
2022-11-18T03:45:17.079Z,98473.26
2022-11-18T03:47:45.181Z,98470.51
2022-11-18T03:50:12.613Z,98475.97
2022-11-18T03:52:39.293Z,98476.05
2022-11-18T03:55:09.079Z,98481.41
2022-11-18T03:57:44.919Z,98482.45
2022-11-18T04:00:12.977Z,98483.23
2022-11-18T04:02:39.657Z,98481.65
2022-11-18T04:05:06.885Z,98482.02
2022-11-18T04:07:38.443Z,98483.82
2022-11-18T04:10:21.265Z,98482.14
2022-11-18T04:12:53.351Z,98480.67
2022-11-18T04:15:20.504Z,98479.43
2022-11-18T04:17:47.134Z,98476.02
2022-11-18T04:20:17.436Z,98474.63
2022-11-18T04:22:44.327Z,98477.80
2022-11-18T04:25:10.925Z,98478.27
2022-11-18T04:27:37.632Z,98477.77
2022-11-18T04:30:05.035Z,98479.63
2022-11-18T04:32:31.674Z,98480.14
2022-11-18T04:34:58.362Z,98478.00
2022-11-18T04:37:25.094Z,98475.83
2022-11-18T04:39:51.688Z,98480.69
2022-11-18T04:42:18.396Z,98475.30
2022-11-18T04:44:44.996Z,98482.94
2022-11-18T04:47:11.677Z,98484.42
2022-11-18T04:49:38.308Z,98489.39
2022-11-18T04:52:05.107Z,98492.51
2022-11-18T04:54:31.743Z,98499.42
2022-11-18T04:56:58.399Z,98507.69
2022-11-18T04:59:25.724Z,98507.41
2022-11-18T05:01:52.413Z,98506.52
2022-11-18T05:04:20.046Z,98509.08
2022-11-18T05:06:46.678Z,98509.95
2022-11-18T05:09:13.390Z,98509.66
2022-11-18T05:11:58.895Z,98509.81
2022-11-18T05:14:28.806Z,98513.30
2022-11-18T05:16:55.760Z,98515.64
2022-11-18T05:19:22.405Z,98520.29
2022-11-18T05:21:49.035Z,98521.77
2022-11-18T05:24:15.708Z,98527.88
2022-11-18T05:26:42.351Z,98528.21
2022-11-18T05:29:08.980Z,98529.12
2022-11-18T05:31:35.673Z,98532.75
2022-11-18T05:34:02.416Z,98533.91
2022-11-18T05:36:29.060Z,98532.77
2022-11-18T05:38:58.160Z,98530.59
2022-11-18T05:41:43.601Z,98530.89
2022-11-18T05:44:10.256Z,98533.65
2022-11-18T05:46:36.977Z,98539.25
2022-11-18T05:49:03.631Z,98541.27
2022-11-18T05:51:30.266Z,98543.23
2022-11-18T05:53:57.092Z,98543.84
2022-11-18T05:56:25.374Z,98544.35
2022-11-18T05:58:52.057Z,98543.35
2022-11-18T06:01:20.589Z,98540.59
2022-11-18T06:03:47.264Z,98538.80
2022-11-18T06:06:13.962Z,98541.86
2022-11-18T06:08:43.427Z,98547.73
2022-11-18T06:11:10.972Z,98549.23
2022-11-18T06:13:39.820Z,98550.84
2022-11-18T06:16:06.652Z,98553.46
2022-11-18T06:18:33.373Z,98556.87
2022-11-18T06:21:01.307Z,98553.94
2022-11-18T06:23:28.642Z,98551.26
2022-11-18T06:25:55.271Z,98551.70
2022-11-18T06:28:21.945Z,98556.92
2022-11-18T06:30:48.593Z,98551.89
2022-11-18T06:33:15.238Z,98557.46
2022-11-18T06:35:42.541Z,98553.14
2022-11-18T06:38:09.199Z,98551.80
2022-11-18T06:40:37.230Z,98557.13
2022-11-18T06:43:25.697Z,98558.89
2022-11-18T06:46:11.013Z,98560.22
2022-11-18T06:48:37.637Z,98565.13
2022-11-18T06:51:07.740Z,98564.02
2022-11-18T06:53:53.056Z,98568.95
2022-11-18T06:56:20.347Z,98569.63
2022-11-18T06:58:47.128Z,98571.11
2022-11-18T07:01:24.785Z,98583.19
2022-11-18T07:03:51.581Z,98585.70
2022-11-18T07:06:19.326Z,98585.91
2022-11-18T07:08:46.005Z,98585.21
2022-11-18T07:11:13.476Z,98582.75
2022-11-18T07:13:43.578Z,98592.11
2022-11-18T07:16:14.894Z,98590.64
2022-11-18T07:18:42.245Z,98593.80
2022-11-18T07:21:10.142Z,98593.48
2022-11-18T07:23:36.778Z,98593.39
2022-11-18T07:26:03.453Z,98596.79
2022-11-18T07:28:30.397Z,98603.81
2022-11-18T07:31:06.330Z,98613.25
2022-11-18T07:33:33.093Z,98616.84
2022-11-18T07:36:03.337Z,98619.80
2022-11-18T07:38:29.995Z,98619.65
2022-11-18T07:41:02.729Z,98619.16
2022-11-18T07:43:29.337Z,98609.06
2022-11-18T07:45:56.042Z,98617.26
2022-11-18T07:48:22.733Z,98619.15
2022-11-18T07:50:49.396Z,98619.49
2022-11-18T07:53:16.038Z,98622.64
2022-11-18T07:55:42.682Z,98622.38
2022-11-18T07:58:09.365Z,98629.65
2022-11-18T08:00:36.008Z,98629.54
2022-11-18T08:03:02.665Z,98621.11
2022-11-18T08:05:29.353Z,98636.75
2022-11-18T08:07:56.023Z,98637.14
2022-11-18T08:10:22.723Z,98636.23
2022-11-18T08:12:49.426Z,98641.52
2022-11-18T08:15:16.087Z,98651.95
2022-11-18T08:17:42.829Z,98651.50
2022-11-18T08:20:09.803Z,98658.57
2022-11-18T08:22:36.464Z,98660.92
2022-11-18T08:25:03.320Z,98663.92
2022-11-18T08:27:29.956Z,98668.52
2022-11-18T08:29:56.585Z,98668.70
2022-11-18T08:32:23.436Z,98670.35
2022-11-18T08:34:50.543Z,98671.64
2022-11-18T08:37:17.236Z,98673.12
2022-11-18T08:39:43.937Z,98673.29
2022-11-18T08:42:10.768Z,98680.94
2022-11-18T08:44:37.389Z,98682.67
2022-11-18T08:47:04.140Z,98683.97
2022-11-18T08:49:32.494Z,98681.74
2022-11-18T08:51:59.355Z,98682.52
2022-11-18T08:54:26.054Z,98680.77
2022-11-18T08:56:52.761Z,98680.61
2022-11-18T08:59:19.578Z,98680.19
2022-11-18T09:01:46.630Z,98676.60
2022-11-18T09:04:13.354Z,98674.53
2022-11-18T09:06:40.404Z,98676.04
2022-11-18T09:09:07.871Z,98676.78
2022-11-18T09:11:34.580Z,98679.59
2022-11-18T09:14:53.378Z,98678.40
2022-11-18T09:16:47.912Z,98682.27
2022-11-18T09:22:01.738Z,98689.91
2022-11-18T09:24:28.463Z,98687.45
2022-11-18T09:26:55.115Z,98690.44
2022-11-18T09:29:25.983Z,98695.41
2022-11-18T09:31:52.939Z,98699.30
2022-11-18T09:34:19.909Z,98697.80
2022-11-18T09:36:46.697Z,98697.73
2022-11-18T09:39:13.372Z,98698.33
2022-11-18T09:41:45.230Z,98701.52
2022-11-18T09:44:21.228Z,98690.77
2022-11-18T09:46:47.947Z,98701.48
2022-11-18T09:49:28.832Z,98705.58
2022-11-18T09:51:55.462Z,98702.08
2022-11-18T09:54:23.157Z,98701.58
2022-11-18T09:56:50.423Z,98697.15
2022-11-18T09:59:17.820Z,98695.75
2022-11-18T10:01:44.564Z,98692.73
2022-11-18T10:04:15.788Z,98687.00
2022-11-18T10:06:42.627Z,98686.18
2022-11-18T10:09:20.017Z,98684.23
2022-11-18T10:12:05.140Z,98678.41
2022-11-18T10:14:51.572Z,98679.41
2022-11-18T10:17:33.735Z,98683.10
2022-11-18T10:20:12.551Z,98688.00
2022-11-18T10:22:43.159Z,98680.58
2022-11-18T10:25:13.620Z,98680.86
2022-11-18T10:27:40.967Z,98682.48
2022-11-18T10:30:20.627Z,98677.69
2022-11-18T10:32:53.018Z,98675.50
2022-11-18T10:35:23.654Z,98676.42
2022-11-18T10:38:07.460Z,98678.36
2022-11-18T10:40:34.827Z,98686.88
2022-11-18T10:43:01.500Z,98688.20
2022-11-18T10:45:31.957Z,98687.69
2022-11-18T10:48:14.174Z,98684.40
2022-11-18T10:50:41.599Z,98683.61
2022-11-18T10:53:27.037Z,98680.56
2022-11-18T10:56:00.438Z,98677.39
2022-11-18T10:58:27.376Z,98673.98
2022-11-18T11:00:54.072Z,98674.28
2022-11-18T11:03:20.670Z,98666.27
2022-11-18T11:05:47.295Z,98675.52
2022-11-18T11:08:36.235Z,98679.55
2022-11-18T11:11:04.472Z,98685.70
2022-11-18T11:13:31.195Z,98686.54
2022-11-18T11:15:58.861Z,98680.79
2022-11-18T11:18:42.307Z,98684.48
2022-11-18T11:21:16.001Z,98682.24
2022-11-18T11:23:42.766Z,98686.42
2022-11-18T11:29:12.237Z,98697.30
2022-11-18T11:31:38.879Z,98697.95
2022-11-18T11:34:11.768Z,98690.08
2022-11-18T11:36:50.805Z,98694.98
2022-11-18T11:39:26.760Z,98690.95
2022-11-18T11:41:56.792Z,98706.41
2022-11-18T11:44:32.295Z,98704.69
2022-11-18T11:47:32.478Z,98730.58
2022-11-18T11:50:05.382Z,98740.89
2022-11-18T11:52:33.923Z,98739.49
2022-11-18T11:55:04.658Z,98726.26
2022-11-18T11:58:00.822Z,98733.18
2022-11-18T12:00:28.907Z,98733.35
2022-11-18T12:03:18.190Z,98738.79
2022-11-18T12:05:44.885Z,98739.55
2022-11-18T12:08:21.279Z,98744.20
2022-11-18T12:10:52.827Z,98756.55
2022-11-18T12:13:38.230Z,98767.13
2022-11-18T12:16:08.211Z,98771.29
2022-11-18T12:19:07.325Z,98765.68
2022-11-18T12:21:46.086Z,98761.71
2022-11-18T12:24:25.889Z,98754.42
2022-11-18T12:26:52.988Z,98749.88
2022-11-18T12:29:19.955Z,98738.35
2022-11-18T12:31:47.143Z,98735.95
2022-11-18T12:34:18.572Z,98735.02
2022-11-18T12:36:45.179Z,98727.09
2022-11-18T12:39:30.077Z,98734.61
2022-11-18T12:42:15.506Z,98754.05
2022-11-18T12:44:42.547Z,98757.75
2022-11-18T12:47:09.802Z,98762.06
2022-11-18T12:49:36.430Z,98771.98
2022-11-18T12:52:03.732Z,98773.05
2022-11-18T12:54:34.258Z,98764.67
2022-11-18T12:57:02.226Z,98779.53
2022-11-18T12:59:33.114Z,98785.21
2022-11-18T13:02:23.456Z,98780.27
2022-11-18T13:05:09.441Z,98776.58
2022-11-18T13:08:04.586Z,98786.86
2022-11-18T13:10:32.289Z,98775.27
2022-11-18T13:12:59.186Z,98766.46
2022-11-18T13:15:44.939Z,98771.77
2022-11-18T13:18:13.575Z,98767.37
2022-11-18T13:20:40.675Z,98767.09
2022-11-18T13:23:29.142Z,98762.08
2022-11-18T13:26:02.429Z,98756.95
2022-11-18T13:28:39.240Z,98749.82
2022-11-18T13:31:15.058Z,98746.48
2022-11-18T13:33:41.726Z,98761.77
2022-11-18T13:36:24.465Z,98761.31
2022-11-18T16:27:42.608Z,98763.17
2022-11-18T16:30:29.507Z,98767.44
2022-11-18T16:32:56.366Z,98776.71
2022-11-18T16:35:23.161Z,98776.98
2022-11-18T16:37:49.913Z,98775.48
2022-11-18T16:40:17.148Z,98787.29
2022-11-18T16:42:43.927Z,98793.84
2022-11-18T16:45:10.966Z,98794.35
2022-11-18T16:47:38.490Z,98794.52
2022-11-18T16:50:05.506Z,98792.57
2022-11-18T16:52:32.228Z,98789.35
2022-11-18T16:54:58.964Z,98795.77
2022-11-18T16:57:25.756Z,98805.39
2022-11-18T16:59:52.493Z,98805.57
2022-11-18T17:02:24.975Z,98794.86
2022-11-18T17:04:51.748Z,98794.21
2022-11-18T17:07:18.523Z,98795.84
2022-11-18T17:09:45.410Z,98790.61
2022-11-18T17:12:12.375Z,98787.38
2022-11-18T17:14:40.281Z,98783.05
2022-11-18T17:17:07.224Z,98787.45
2022-11-18T17:19:34.026Z,98787.41
2022-11-18T17:22:00.717Z,98784.20
2022-11-18T17:24:27.468Z,98793.61
2022-11-18T17:26:54.526Z,98793.48
2022-11-18T17:29:21.628Z,98795.26
2022-11-18T17:31:48.760Z,98801.80
2022-11-18T17:34:15.847Z,98801.55
2022-11-18T17:36:43.253Z,98808.80
2022-11-18T17:39:11.021Z,98805.47
2022-11-18T17:41:56.802Z,98797.73
2022-11-18T17:44:24.561Z,98794.85
2022-11-18T17:46:51.609Z,98793.33
2022-11-18T17:49:18.532Z,98785.04
2022-11-18T17:51:48.249Z,98776.70
2022-11-18T17:54:14.996Z,98778.09
2022-11-18T17:56:41.886Z,98779.51
2022-11-18T17:59:08.607Z,98773.83
2022-11-18T18:01:36.166Z,98772.43
2022-11-18T18:04:03.112Z,98774.20
2022-11-18T18:06:29.784Z,98777.12
2022-11-18T18:08:57.431Z,98765.41
2022-11-18T18:11:24.414Z,98759.25
2022-11-18T18:14:09.899Z,98758.34
2022-11-18T18:16:36.762Z,98754.27
2022-11-18T18:19:04.739Z,98749.54
2022-11-18T18:21:31.787Z,98743.58
2022-11-18T18:23:58.620Z,98731.67
2022-11-18T18:26:29.925Z,98731.18
2022-11-18T18:28:59.412Z,98719.21
2022-11-18T18:31:26.738Z,98732.90
2022-11-18T18:33:53.469Z,98742.35
2022-11-18T18:36:21.003Z,98758.98
2022-11-18T18:38:47.843Z,98766.79
2022-11-18T18:41:15.370Z,98763.24
2022-11-18T18:43:42.105Z,98758.64
2022-11-18T18:46:36.226Z,98751.87
2022-11-18T18:49:03.075Z,98752.73
2022-11-18T18:51:30.778Z,98737.95
2022-11-18T18:53:58.420Z,98754.58
2022-11-18T18:56:25.467Z,98762.55
2022-11-18T18:58:52.151Z,98768.50
2022-11-18T19:01:19.402Z,98773.92
2022-11-18T19:03:46.308Z,98776.02
2022-11-18T19:09:03.525Z,98781.11
2022-11-18T19:11:49.123Z,98772.85
2022-11-18T19:14:18.124Z,98771.79
2022-11-18T19:16:45.460Z,98776.55
2022-11-18T19:19:17.020Z,98775.77
2022-11-18T19:21:45.258Z,98775.61
2022-11-18T19:24:34.767Z,98774.42
2022-11-18T19:26:59.094Z,98775.23
2022-11-18T19:29:28.305Z,98768.88
2022-11-18T19:31:55.431Z,98769.84
2022-11-18T19:34:22.190Z,98765.27
2022-11-18T19:36:49.037Z,98762.77
2022-11-18T19:39:16.047Z,98761.81
2022-11-18T19:41:43.021Z,98764.64
2022-11-18T19:44:09.867Z,98759.01
2022-11-18T19:46:37.572Z,98753.46
2022-11-18T19:49:04.285Z,98744.98
2022-11-18T19:51:31.013Z,98747.89
2022-11-18T19:53:59.776Z,98744.80
2022-11-18T19:56:26.800Z,98743.05
2022-11-18T19:58:54.894Z,98732.15
2022-11-18T20:01:25.708Z,98728.12
2022-11-18T20:03:53.681Z,98723.46
2022-11-18T20:06:22.606Z,98721.82
2022-11-18T20:08:49.473Z,98720.95
2022-11-18T20:11:16.584Z,98713.84
2022-11-18T20:13:45.301Z,98715.97
2022-11-18T20:16:12.816Z,98718.56
2022-11-18T20:18:40.353Z,98715.36
2022-11-18T20:21:09.333Z,98711.63
2022-11-18T20:23:36.564Z,98704.66
2022-11-18T20:26:09.874Z,98711.81
2022-11-18T20:28:38.669Z,98714.33
2022-11-18T20:31:06.306Z,98713.20
2022-11-18T20:33:37.029Z,98707.88
2022-11-18T20:36:11.560Z,98709.24
2022-11-18T20:38:38.753Z,98716.55
2022-11-18T20:41:07.011Z,98719.70
2022-11-18T20:43:34.215Z,98704.70
2022-11-18T20:46:01.135Z,98705.50
2022-11-18T20:48:27.976Z,98702.67
2022-11-18T20:50:54.659Z,98703.05
2022-11-18T20:53:25.392Z,98695.21
2022-11-18T20:55:52.159Z,98695.64
2022-11-18T20:58:18.970Z,98690.73
2022-11-18T21:00:46.351Z,98693.15
2022-11-18T21:03:13.137Z,98694.88
2022-11-18T21:05:40.707Z,98682.90
2022-11-18T21:08:10.593Z,98681.98
2022-11-18T21:10:37.405Z,98679.82
2022-11-18T21:13:22.934Z,98675.26
2022-11-18T21:15:49.715Z,98671.15
2022-11-18T21:18:16.420Z,98672.18
2022-11-18T21:21:01.585Z,98674.80
2022-11-18T21:23:28.339Z,98667.27
2022-11-18T21:25:55.214Z,98672.45
2022-11-18T21:28:21.819Z,98670.73
2022-11-18T21:30:48.708Z,98670.86
2022-11-18T21:33:15.352Z,98669.79
2022-11-18T21:35:42.102Z,98668.14
2022-11-18T21:38:08.928Z,98658.85
2022-11-18T21:40:35.585Z,98663.63
2022-11-18T21:43:02.406Z,98655.86
2022-11-18T21:45:29.059Z,98654.80
2022-11-18T21:47:55.924Z,98657.02
2022-11-18T21:50:22.626Z,98657.57
2022-11-18T21:52:49.679Z,98652.17
2022-11-18T21:55:16.731Z,98646.20
2022-11-18T21:57:43.492Z,98642.50
2022-11-18T22:00:11.053Z,98636.39
2022-11-18T22:02:38.506Z,98633.19
2022-11-18T22:05:07.061Z,98631.67
2022-11-18T22:07:34.157Z,98627.23
2022-11-18T22:10:00.952Z,98624.96
2022-11-18T22:12:27.713Z,98619.24
2022-11-18T22:14:54.428Z,98624.05
2022-11-18T22:17:21.104Z,98622.21
2022-11-18T22:19:47.811Z,98622.05
2022-11-18T22:22:14.647Z,98623.81
2022-11-18T22:24:41.414Z,98623.70
2022-11-18T22:27:11.554Z,98617.81
2022-11-18T22:29:38.520Z,98613.80
2022-11-18T22:32:05.296Z,98617.86
2022-11-18T22:34:32.021Z,98616.71
2022-11-18T22:36:58.709Z,98610.10
2022-11-18T22:39:25.538Z,98602.33
2022-11-18T22:42:11.117Z,98600.41
2022-11-18T22:44:37.855Z,98588.77
2022-11-18T22:47:04.602Z,98584.45
2022-11-18T22:49:31.371Z,98579.45
2022-11-18T22:51:58.285Z,98572.02
2022-11-18T22:54:40.712Z,98562.80
2022-11-18T22:57:07.890Z,98562.11
2022-11-18T22:59:34.625Z,98553.56
2022-11-18T23:02:01.933Z,98555.98
2022-11-18T23:04:28.712Z,98548.95
2022-11-18T23:06:55.460Z,98545.67
2022-11-18T23:09:22.403Z,98540.79
2022-11-18T23:12:08.107Z,98536.96
2022-11-18T23:14:34.855Z,98537.00
2022-11-18T23:17:01.586Z,98535.32
2022-11-18T23:19:28.312Z,98530.23
2022-11-18T23:21:55.043Z,98524.27
2022-11-18T23:24:22.039Z,98524.92
2022-11-18T23:26:48.812Z,98523.98
2022-11-18T23:29:15.760Z,98511.52
2022-11-18T23:31:43.713Z,98515.51
2022-11-18T23:34:11.982Z,98511.07
2022-11-18T23:36:39.004Z,98508.53
2022-11-18T23:39:06.053Z,98505.20
2022-11-18T23:41:32.722Z,98502.28
2022-11-18T23:43:59.584Z,98499.48
2022-11-18T23:46:27.654Z,98495.03
2022-11-18T23:48:54.372Z,98486.20
2022-11-18T23:51:22.045Z,98485.05
2022-11-18T23:53:55.019Z,98480.94
2022-11-18T23:56:23.175Z,98478.52
2022-11-18T23:58:51.295Z,98469.98
